createdAt,value
2023-12-16T00:00:30.449Z,562.00
2023-12-16T00:01:31.008Z,563.00
2023-12-16T00:02:30.495Z,564.00
2023-12-16T00:03:30.525Z,563.00
2023-12-16T00:04:30.558Z,563.00
2023-12-16T00:05:30.517Z,565.00
2023-12-16T00:06:30.495Z,565.00
2023-12-16T00:07:30.488Z,565.00
2023-12-16T00:08:30.465Z,566.00
2023-12-16T00:09:30.466Z,565.00
2023-12-16T00:10:30.536Z,567.00
2023-12-16T00:11:30.493Z,569.00
2023-12-16T00:12:30.447Z,570.00
2023-12-16T00:13:30.529Z,571.00
2023-12-16T00:14:30.505Z,570.00
2023-12-16T00:15:30.512Z,569.00
2023-12-16T00:16:32.428Z,565.00
2023-12-16T00:17:30.511Z,562.00
2023-12-16T00:18:30.525Z,560.00
2023-12-16T00:19:30.557Z,558.00
2023-12-16T00:20:30.465Z,557.00
2023-12-16T00:21:30.500Z,553.00
2023-12-16T00:22:30.498Z,551.00
2023-12-16T00:23:30.496Z,551.00
2023-12-16T00:24:30.499Z,554.00
2023-12-16T00:25:30.583Z,556.00
2023-12-16T00:26:30.509Z,554.00
2023-12-16T00:27:30.506Z,554.00
2023-12-16T00:28:30.584Z,554.00
2023-12-16T00:29:30.504Z,556.00
2023-12-16T00:30:30.542Z,560.00
2023-12-16T00:31:31.016Z,561.00
2023-12-16T00:32:30.688Z,559.00
2023-12-16T00:33:30.726Z,559.00
2023-12-16T00:34:30.782Z,560.00
2023-12-16T00:35:30.688Z,557.00
2023-12-16T00:36:30.764Z,556.00
2023-12-16T00:37:30.843Z,557.00
2023-12-16T00:38:30.820Z,555.00
2023-12-16T00:39:30.947Z,554.00
2023-12-16T00:40:30.982Z,553.00
2023-12-16T00:41:30.983Z,555.00
2023-12-16T00:42:31.049Z,556.00
2023-12-16T00:43:31.165Z,555.00
2023-12-16T00:44:31.178Z,555.00
2023-12-16T00:45:31.255Z,555.00
2023-12-16T00:46:31.300Z,555.00
2023-12-16T00:47:31.448Z,554.00
2023-12-16T00:48:31.432Z,554.00
2023-12-16T00:49:31.507Z,551.00
2023-12-16T00:50:31.523Z,551.00
2023-12-16T00:51:31.584Z,551.00
2023-12-16T00:52:31.601Z,550.00
2023-12-16T00:53:31.639Z,550.00
2023-12-16T00:54:31.691Z,551.00
2023-12-16T00:55:31.732Z,551.00
2023-12-16T00:56:31.923Z,551.00
2023-12-16T00:57:31.880Z,551.00
2023-12-16T00:58:31.870Z,551.00
2023-12-16T00:59:31.938Z,552.00
2023-12-16T01:00:31.997Z,555.00
2023-12-16T01:01:32.174Z,555.00
2023-12-16T01:02:32.069Z,554.00
2023-12-16T01:03:32.148Z,555.00
2023-12-16T01:04:32.185Z,555.00
2023-12-16T01:05:32.235Z,555.00
2023-12-16T01:06:32.241Z,556.00
2023-12-16T01:07:32.261Z,557.00
2023-12-16T01:08:32.310Z,555.00
2023-12-16T01:09:32.357Z,556.00
2023-12-16T01:10:32.453Z,556.00
2023-12-16T01:11:32.438Z,555.00
2023-12-16T01:12:32.472Z,555.00
2023-12-16T01:13:32.552Z,556.00
2023-12-16T01:14:32.553Z,558.00
2023-12-16T01:15:32.669Z,559.00
2023-12-16T01:16:32.671Z,559.00
2023-12-16T01:17:32.798Z,559.00
2023-12-16T01:18:32.793Z,556.00
2023-12-16T01:19:32.853Z,554.00
2023-12-16T01:20:33.425Z,552.00
2023-12-16T01:21:32.938Z,553.00
2023-12-16T01:22:32.932Z,553.00
2023-12-16T01:23:32.969Z,552.00
2023-12-16T01:24:33.042Z,552.00
2023-12-16T01:25:33.063Z,552.00
2023-12-16T01:26:33.465Z,552.00
2023-12-16T01:27:33.162Z,553.00
2023-12-16T01:28:33.227Z,552.00
2023-12-16T01:29:33.280Z,554.00
2023-12-16T01:30:33.382Z,554.00
2023-12-16T01:31:33.466Z,554.00
2023-12-16T01:32:33.477Z,556.00
2023-12-16T01:33:33.545Z,555.00
2023-12-16T01:34:33.599Z,554.00
2023-12-16T01:35:33.626Z,552.00
2023-12-16T01:36:33.935Z,550.00
2023-12-16T01:37:33.710Z,547.00
2023-12-16T01:38:33.749Z,545.00
2023-12-16T01:39:33.894Z,544.00
2023-12-16T01:40:34.045Z,545.00
2023-12-16T01:41:33.904Z,544.00
2023-12-16T01:42:33.971Z,543.00
2023-12-16T01:43:34.055Z,543.00
2023-12-16T01:44:34.089Z,543.00
2023-12-16T01:45:34.157Z,544.00
2023-12-16T01:46:34.288Z,544.00
2023-12-16T01:47:34.280Z,545.00
2023-12-16T01:48:34.477Z,545.00
2023-12-16T01:49:34.447Z,546.00
2023-12-16T01:50:34.454Z,546.00
2023-12-16T01:51:34.975Z,545.00
2023-12-16T01:52:34.562Z,543.00
2023-12-16T01:53:34.606Z,541.00
2023-12-16T01:54:34.643Z,541.00
2023-12-16T01:55:34.699Z,544.00
2023-12-16T01:56:34.832Z,544.00
2023-12-16T01:57:34.819Z,544.00
2023-12-16T01:58:34.867Z,545.00
2023-12-16T01:59:34.928Z,546.00
2023-12-16T02:00:35.061Z,547.00
2023-12-16T02:01:35.387Z,545.00
2023-12-16T02:02:35.094Z,544.00
2023-12-16T02:03:35.187Z,542.00
2023-12-16T02:04:35.165Z,542.00
2023-12-16T02:05:35.217Z,542.00
2023-12-16T02:06:35.499Z,541.00
2023-12-16T02:07:35.403Z,541.00
2023-12-16T02:08:35.393Z,541.00
2023-12-16T02:09:35.460Z,542.00
2023-12-16T02:10:35.504Z,542.00
2023-12-16T02:11:35.542Z,540.00
2023-12-16T02:12:35.642Z,539.00
2023-12-16T02:13:35.696Z,537.00
2023-12-16T02:14:35.744Z,537.00
2023-12-16T02:15:35.858Z,539.00
2023-12-16T02:16:35.969Z,540.00
2023-12-16T02:17:35.974Z,539.00
2023-12-16T02:18:36.289Z,538.00
2023-12-16T02:19:36.144Z,540.00
2023-12-16T02:20:36.093Z,540.00
2023-12-16T02:21:36.444Z,540.00
2023-12-16T02:22:36.210Z,539.00
2023-12-16T02:23:36.269Z,539.00
2023-12-16T02:24:36.317Z,537.00
2023-12-16T02:25:36.404Z,538.00
2023-12-16T02:26:36.486Z,536.00
2023-12-16T02:27:36.751Z,536.00
2023-12-16T02:28:36.550Z,537.00
2023-12-16T02:29:36.585Z,536.00
2023-12-16T02:30:36.719Z,535.00
2023-12-16T02:31:36.772Z,536.00
2023-12-16T02:32:36.909Z,537.00
2023-12-16T02:33:36.941Z,537.00
2023-12-16T02:34:37.033Z,537.00
2023-12-16T02:35:37.010Z,536.00
2023-12-16T02:36:37.471Z,535.00
2023-12-16T02:37:37.330Z,536.00
2023-12-16T02:38:37.171Z,535.00
2023-12-16T02:39:37.257Z,536.00
2023-12-16T02:40:37.290Z,534.00
2023-12-16T02:41:37.425Z,534.00
2023-12-16T02:42:37.478Z,534.00
2023-12-16T02:43:37.488Z,534.00
2023-12-16T02:44:37.590Z,534.00
2023-12-16T02:45:37.613Z,532.00
2023-12-16T02:46:37.950Z,531.00
2023-12-16T02:47:38.214Z,532.00
2023-12-16T02:48:37.826Z,533.00
2023-12-16T02:49:38.024Z,533.00
2023-12-16T02:50:37.970Z,532.00
2023-12-16T02:51:37.974Z,532.00
2023-12-16T02:52:38.022Z,531.00
2023-12-16T02:53:38.133Z,533.00
2023-12-16T02:54:38.209Z,535.00
2023-12-16T02:55:38.248Z,536.00
2023-12-16T02:56:38.493Z,538.00
2023-12-16T02:58:38.474Z,537.00
2023-12-16T02:59:38.580Z,535.00
2023-12-16T03:00:38.689Z,536.00
2023-12-16T03:01:39.015Z,533.00
2023-12-16T03:02:38.767Z,531.00
2023-12-16T03:03:38.843Z,530.00
2023-12-16T03:04:38.903Z,529.00
2023-12-16T03:05:38.967Z,527.00
2023-12-16T03:06:39.481Z,526.00
2023-12-16T03:07:39.456Z,527.00
2023-12-16T03:08:39.192Z,528.00
2023-12-16T03:09:39.244Z,529.00
2023-12-16T03:10:39.352Z,531.00
2023-12-16T03:11:39.469Z,531.00
2023-12-16T03:12:39.423Z,530.00
2023-12-16T03:13:39.472Z,531.00
2023-12-16T03:14:39.540Z,529.00
2023-12-16T03:15:39.585Z,528.00
2023-12-16T03:16:39.699Z,527.00
2023-12-16T03:17:40.079Z,527.00
2023-12-16T03:18:39.803Z,528.00
2023-12-16T03:19:39.953Z,527.00
2023-12-16T03:20:39.926Z,526.00
2023-12-16T03:21:41.021Z,527.00
2023-12-16T03:22:40.084Z,528.00
2023-12-16T03:23:40.131Z,528.00
2023-12-16T03:24:40.228Z,530.00
2023-12-16T03:25:40.270Z,530.00
2023-12-16T03:26:40.403Z,531.00
2023-12-16T03:27:40.763Z,531.00
2023-12-16T03:28:40.458Z,528.00
2023-12-16T03:29:40.555Z,529.00
2023-12-16T03:30:40.630Z,529.00
2023-12-16T03:31:41.004Z,530.00
2023-12-16T03:32:40.811Z,529.00
2023-12-16T03:33:40.890Z,530.00
2023-12-16T03:34:40.952Z,529.00
2023-12-16T03:35:40.963Z,527.00
2023-12-16T03:36:41.027Z,525.00
2023-12-16T03:37:41.174Z,523.00
2023-12-16T03:38:41.173Z,522.00
2023-12-16T03:39:41.256Z,524.00
2023-12-16T03:40:41.493Z,525.00
2023-12-16T03:41:41.357Z,527.00
2023-12-16T03:42:41.487Z,527.00
2023-12-16T03:43:41.554Z,527.00
2023-12-16T03:44:41.596Z,527.00
2023-12-16T03:45:41.633Z,528.00
2023-12-16T03:46:41.721Z,528.00
2023-12-16T03:47:41.900Z,525.00
2023-12-16T03:48:41.936Z,525.00
2023-12-16T03:49:41.968Z,524.00
2023-12-16T03:50:42.047Z,523.00
2023-12-16T03:51:42.097Z,522.00
2023-12-16T03:52:42.168Z,523.00
2023-12-16T03:53:42.199Z,525.00
2023-12-16T03:54:42.284Z,524.00
2023-12-16T03:55:42.376Z,526.00
2023-12-16T03:56:42.510Z,524.00
2023-12-16T03:57:42.461Z,523.00
2023-12-16T03:58:42.557Z,523.00
2023-12-16T03:59:42.609Z,522.00
2023-12-16T04:00:42.574Z,521.00
2023-12-16T04:01:43.065Z,522.00
2023-12-16T04:02:42.756Z,523.00
2023-12-16T04:03:42.754Z,523.00
2023-12-16T04:04:42.846Z,524.00
2023-12-16T04:05:42.936Z,523.00
2023-12-16T04:06:42.979Z,522.00
2023-12-16T04:07:43.079Z,521.00
2023-12-16T04:08:43.116Z,519.00
2023-12-16T04:09:43.189Z,520.00
2023-12-16T04:10:43.229Z,520.00
2023-12-16T04:11:43.307Z,520.00
2023-12-16T04:12:43.385Z,518.00
2023-12-16T04:13:43.441Z,518.00
2023-12-16T04:14:43.499Z,518.00
2023-12-16T04:15:43.553Z,518.00
2023-12-16T04:16:43.658Z,519.00
2023-12-16T04:17:44.138Z,518.00
2023-12-16T04:18:43.777Z,520.00
2023-12-16T04:19:43.788Z,521.00
2023-12-16T04:20:43.788Z,523.00
2023-12-16T04:21:43.838Z,524.00
2023-12-16T04:22:43.844Z,525.00
2023-12-16T04:23:43.903Z,528.00
2023-12-16T04:24:44.022Z,526.00
2023-12-16T04:25:44.049Z,529.00
2023-12-16T04:26:44.502Z,530.00
2023-12-16T04:27:44.192Z,529.00
2023-12-16T04:28:44.250Z,529.00
2023-12-16T04:29:44.302Z,530.00
2023-12-16T04:30:44.436Z,530.00
2023-12-16T04:31:44.457Z,528.00
2023-12-16T04:32:44.487Z,527.00
2023-12-16T04:33:44.542Z,526.00
2023-12-16T04:34:44.578Z,525.00
2023-12-16T04:35:44.618Z,523.00
2023-12-16T04:36:45.085Z,523.00
2023-12-16T04:37:44.624Z,522.00
2023-12-16T04:38:44.624Z,521.00
2023-12-16T04:39:44.738Z,522.00
2023-12-16T04:40:44.685Z,522.00
2023-12-16T04:41:44.670Z,521.00
2023-12-16T04:42:44.702Z,521.00
2023-12-16T04:43:44.772Z,521.00
2023-12-16T04:44:52.089Z,527.00
2023-12-16T04:45:52.114Z,533.00
2023-12-16T04:46:52.125Z,536.00
2023-12-16T04:47:52.134Z,536.00
2023-12-16T04:48:52.228Z,537.00
2023-12-16T04:49:52.097Z,538.00
2023-12-16T04:50:52.082Z,535.00
2023-12-16T04:51:52.134Z,537.00
2023-12-16T04:52:52.092Z,537.00
2023-12-16T04:53:52.063Z,534.00
2023-12-16T04:54:52.137Z,534.00
2023-12-16T04:55:53.520Z,536.00
2023-12-16T04:56:52.133Z,536.00
2023-12-16T04:57:52.143Z,537.00
2023-12-16T04:58:52.080Z,535.00
2023-12-16T04:59:52.097Z,534.00
2023-12-16T05:00:52.118Z,535.00
2023-12-16T05:01:52.245Z,534.00
2023-12-16T05:02:52.088Z,535.00
2023-12-16T05:03:52.177Z,536.00
2023-12-16T05:04:52.136Z,535.00
2023-12-16T05:05:52.177Z,535.00
2023-12-16T05:06:54.506Z,535.00
2023-12-16T05:07:52.095Z,535.00
2023-12-16T05:08:52.104Z,534.00
2023-12-16T05:09:52.091Z,531.00
2023-12-16T05:10:52.072Z,531.00
2023-12-16T05:11:52.131Z,530.00
2023-12-16T05:12:52.124Z,531.00
2023-12-16T05:13:52.099Z,532.00
2023-12-16T05:14:52.144Z,533.00
2023-12-16T05:15:52.146Z,533.00
2023-12-16T05:16:52.199Z,533.00
2023-12-16T05:17:52.140Z,532.00
2023-12-16T05:18:52.168Z,532.00
2023-12-16T05:19:52.168Z,532.00
2023-12-16T05:20:52.152Z,533.00
2023-12-16T05:21:52.160Z,535.00
2023-12-16T05:22:52.152Z,535.00
2023-12-16T05:23:52.107Z,535.00
2023-12-16T05:24:52.125Z,532.00
2023-12-16T05:25:52.123Z,532.00
2023-12-16T05:26:52.123Z,532.00
2023-12-16T05:27:52.168Z,533.00
2023-12-16T05:28:52.147Z,531.00
2023-12-16T05:29:52.147Z,531.00
2023-12-16T05:30:52.231Z,532.00
2023-12-16T05:31:52.189Z,532.00
2023-12-16T05:32:52.208Z,534.00
2023-12-16T05:33:52.233Z,537.00
2023-12-16T05:34:52.136Z,536.00
2023-12-16T05:35:52.219Z,536.00
2023-12-16T05:36:52.172Z,538.00
2023-12-16T05:37:52.144Z,538.00
2023-12-16T05:38:52.151Z,539.00
2023-12-16T05:39:53.364Z,538.00
2023-12-16T05:40:52.138Z,538.00
2023-12-16T05:41:52.181Z,539.00
2023-12-16T05:42:52.309Z,540.00
2023-12-16T05:43:52.148Z,538.00
2023-12-16T05:44:52.155Z,538.00
2023-12-16T05:45:52.162Z,537.00
2023-12-16T05:46:52.163Z,535.00
2023-12-16T05:47:52.274Z,534.00
2023-12-16T05:48:52.277Z,534.00
2023-12-16T05:49:52.336Z,533.00
2023-12-16T05:50:52.205Z,533.00
2023-12-16T05:51:52.165Z,532.00
2023-12-16T05:52:52.135Z,531.00
2023-12-16T05:53:52.267Z,531.00
2023-12-16T05:54:52.192Z,532.00
2023-12-16T05:55:52.157Z,531.00
2023-12-16T05:56:52.155Z,532.00
2023-12-16T05:57:52.167Z,533.00
2023-12-16T05:58:52.140Z,530.00
2023-12-16T05:59:52.157Z,529.00
2023-12-16T06:00:52.222Z,528.00
2023-12-16T06:01:52.212Z,528.00
2023-12-16T06:02:52.216Z,529.00
2023-12-16T06:03:52.197Z,530.00
2023-12-16T06:04:52.156Z,528.00
2023-12-16T06:05:52.265Z,530.00
2023-12-16T06:06:52.212Z,530.00
2023-12-16T06:07:52.216Z,531.00
2023-12-16T06:08:52.155Z,529.00
2023-12-16T06:09:52.192Z,528.00
2023-12-16T06:10:52.177Z,527.00
2023-12-16T06:11:52.168Z,528.00
2023-12-16T06:12:52.206Z,530.00
2023-12-16T06:13:52.192Z,531.00
2023-12-16T06:14:52.193Z,531.00
2023-12-16T06:16:03.727Z,532.00
2023-12-16T06:16:53.310Z,534.00
2023-12-16T06:17:52.320Z,533.00
2023-12-16T06:18:52.445Z,529.00
2023-12-16T06:19:52.268Z,529.00
2023-12-16T06:20:52.241Z,526.00
2023-12-16T06:21:52.223Z,526.00
2023-12-16T06:22:52.258Z,525.00
2023-12-16T06:23:52.214Z,524.00
2023-12-16T06:24:52.236Z,525.00
2023-12-16T06:25:52.223Z,524.00
2023-12-16T06:26:52.238Z,524.00
2023-12-16T06:27:52.259Z,522.00
2023-12-16T06:28:52.251Z,521.00
2023-12-16T06:29:52.261Z,521.00
2023-12-16T06:30:52.322Z,522.00
2023-12-16T06:31:52.201Z,522.00
2023-12-16T06:32:52.315Z,521.00
2023-12-16T06:33:52.277Z,523.00
2023-12-16T06:34:52.282Z,524.00
2023-12-16T06:35:52.214Z,524.00
2023-12-16T06:36:52.269Z,525.00
2023-12-16T06:37:52.246Z,525.00
2023-12-16T06:38:52.243Z,525.00
2023-12-16T06:39:52.243Z,525.00
2023-12-16T06:40:52.250Z,525.00
2023-12-16T06:41:52.239Z,528.00
2023-12-16T06:42:52.305Z,528.00
2023-12-16T06:43:52.254Z,529.00
2023-12-16T06:44:52.259Z,529.00
2023-12-16T06:45:52.287Z,527.00
2023-12-16T06:46:52.267Z,525.00
2023-12-16T06:47:52.892Z,527.00
2023-12-16T06:48:52.497Z,526.00
2023-12-16T06:49:52.253Z,523.00
2023-12-16T06:50:52.223Z,523.00
2023-12-16T06:51:52.258Z,522.00
2023-12-16T06:52:52.241Z,521.00
2023-12-16T06:53:52.269Z,521.00
2023-12-16T06:54:52.244Z,520.00
2023-12-16T06:55:53.862Z,522.00
2023-12-16T06:56:52.281Z,520.00
2023-12-16T06:57:52.784Z,521.00
2023-12-16T06:58:52.290Z,525.00
2023-12-16T06:59:52.354Z,525.00
2023-12-16T07:00:52.446Z,527.00
2023-12-16T07:01:52.464Z,523.00
2023-12-16T07:02:52.782Z,523.00
2023-12-16T07:03:52.489Z,521.00
2023-12-16T07:04:52.407Z,521.00
2023-12-16T07:05:52.427Z,521.00
2023-12-16T07:06:52.452Z,521.00
2023-12-16T07:07:52.752Z,520.00
2023-12-16T07:08:52.467Z,524.00
2023-12-16T07:09:52.504Z,525.00
2023-12-16T07:10:52.463Z,526.00
2023-12-16T07:11:52.509Z,528.00
2023-12-16T07:12:52.848Z,529.00
2023-12-16T07:13:52.568Z,529.00
2023-12-16T07:14:52.576Z,532.00
2023-12-16T07:15:52.601Z,532.00
2023-12-16T07:16:55.168Z,531.00
2023-12-16T07:17:53.265Z,532.00
2023-12-16T07:18:52.638Z,531.00
2023-12-16T07:19:52.676Z,529.00
2023-12-16T07:20:52.615Z,532.00
2023-12-16T07:21:52.608Z,532.00
2023-12-16T07:22:52.773Z,531.00
2023-12-16T07:23:52.584Z,530.00
2023-12-16T07:24:52.605Z,530.00
2023-12-16T07:25:52.575Z,527.00
2023-12-16T07:26:52.593Z,526.00
2023-12-16T07:27:52.609Z,525.00
2023-12-16T07:28:52.572Z,524.00
2023-12-16T07:29:52.577Z,524.00
2023-12-16T07:30:52.664Z,525.00
2023-12-16T07:31:52.691Z,527.00
2023-12-16T07:32:52.678Z,529.00
2023-12-16T07:33:52.676Z,529.00
2023-12-16T07:34:52.650Z,528.00
2023-12-16T07:35:54.661Z,528.00
2023-12-16T07:36:52.613Z,528.00
2023-12-16T07:37:52.809Z,530.00
2023-12-16T07:38:52.576Z,529.00
2023-12-16T07:39:52.611Z,528.00
2023-12-16T07:40:52.545Z,529.00
2023-12-16T07:41:52.603Z,529.00
2023-12-16T07:42:52.625Z,528.00
2023-12-16T07:43:52.593Z,528.00
2023-12-16T07:44:52.672Z,528.00
2023-12-16T07:45:52.719Z,529.00
2023-12-16T07:46:52.690Z,530.00
2023-12-16T07:47:52.854Z,530.00
2023-12-16T07:48:52.904Z,528.00
2023-12-16T07:49:52.780Z,526.00
2023-12-16T07:50:52.741Z,528.00
2023-12-16T07:51:52.861Z,529.00
2023-12-16T07:52:52.831Z,527.00
2023-12-16T07:53:54.271Z,525.00
2023-12-16T07:54:52.860Z,526.00
2023-12-16T07:55:52.904Z,525.00
2023-12-16T07:56:52.886Z,524.00
2023-12-16T07:57:53.284Z,523.00
2023-12-16T07:58:52.980Z,523.00
2023-12-16T07:59:54.661Z,521.00
2023-12-16T08:00:53.040Z,522.00
2023-12-16T08:01:53.010Z,522.00
2023-12-16T08:02:53.064Z,521.00
2023-12-16T08:03:53.143Z,521.00
2023-12-16T08:04:53.048Z,521.00
2023-12-16T08:05:53.084Z,523.00
2023-12-16T08:06:53.136Z,525.00
2023-12-16T08:07:53.278Z,526.00
2023-12-16T08:08:53.076Z,525.00
2023-12-16T08:09:53.167Z,525.00
2023-12-16T08:10:53.157Z,524.00
2023-12-16T08:11:53.147Z,524.00
2023-12-16T08:12:53.178Z,524.00
2023-12-16T08:13:53.220Z,526.00
2023-12-16T08:14:53.228Z,526.00
2023-12-16T08:15:53.239Z,527.00
2023-12-16T08:16:53.308Z,525.00
2023-12-16T08:17:53.882Z,526.00
2023-12-16T08:18:53.456Z,527.00
2023-12-16T08:19:53.353Z,527.00
2023-12-16T08:20:53.379Z,526.00
2023-12-16T08:21:53.407Z,527.00
2023-12-16T08:22:53.421Z,528.00
2023-12-16T08:23:53.459Z,527.00
2023-12-16T08:24:53.490Z,527.00
2023-12-16T08:25:53.471Z,525.00
2023-12-16T08:26:53.523Z,525.00
2023-12-16T08:27:53.797Z,523.00
2023-12-16T08:28:53.601Z,523.00
2023-12-16T08:29:53.593Z,522.00
2023-12-16T08:30:53.737Z,515.00
2023-12-16T08:31:53.733Z,515.00
2023-12-16T08:32:53.725Z,519.00
2023-12-16T08:33:53.816Z,530.00
2023-12-16T08:34:53.856Z,536.00
2023-12-16T08:35:53.805Z,545.00
2023-12-16T08:36:53.849Z,550.00
2023-12-16T08:37:54.316Z,556.00
2023-12-16T08:38:53.902Z,556.00
2023-12-16T08:39:53.914Z,564.00
2023-12-16T08:40:53.985Z,569.00
2023-12-16T08:41:54.008Z,567.00
2023-12-16T08:42:54.147Z,562.00
2023-12-16T08:43:54.144Z,557.00
2023-12-16T08:44:54.159Z,548.00
2023-12-16T08:45:54.245Z,513.00
2023-12-16T08:46:54.277Z,527.00
2023-12-16T08:47:54.817Z,538.00
2023-12-16T08:48:54.368Z,540.00
2023-12-16T08:49:54.456Z,547.00
2023-12-16T08:50:54.457Z,552.00
2023-12-16T08:51:54.510Z,553.00
2023-12-16T08:52:54.516Z,556.00
2023-12-16T08:53:54.635Z,551.00
2023-12-16T08:54:54.641Z,556.00
2023-12-16T08:55:54.702Z,554.00
2023-12-16T08:56:54.747Z,552.00
2023-12-16T08:57:54.854Z,549.00
2023-12-16T08:58:54.824Z,543.00
2023-12-16T08:59:54.866Z,541.00
2023-12-16T09:00:55.033Z,539.00
2023-12-16T09:01:54.982Z,537.00
2023-12-16T09:02:54.954Z,539.00
2023-12-16T09:03:55.075Z,539.00
2023-12-16T09:04:55.019Z,539.00
2023-12-16T09:05:55.149Z,536.00
2023-12-16T09:06:55.163Z,537.00
2023-12-16T09:07:55.288Z,534.00
2023-12-16T09:08:55.200Z,533.00
2023-12-16T09:09:55.243Z,532.00
2023-12-16T09:10:55.233Z,533.00
2023-12-16T09:11:55.272Z,532.00
2023-12-16T09:12:55.439Z,531.00
2023-12-16T09:13:55.381Z,529.00
2023-12-16T09:14:55.391Z,529.00
2023-12-16T09:15:55.526Z,527.00
2023-12-16T09:16:55.526Z,529.00
2023-12-16T09:17:55.725Z,531.00
2023-12-16T09:18:55.780Z,530.00
2023-12-16T09:19:55.754Z,527.00
2023-12-16T09:20:55.721Z,528.00
2023-12-16T09:21:55.790Z,524.00
2023-12-16T09:22:55.832Z,526.00
2023-12-16T09:23:55.765Z,527.00
2023-12-16T09:24:55.788Z,529.00
2023-12-16T09:25:55.833Z,530.00
2023-12-16T09:26:55.794Z,530.00
2023-12-16T09:27:56.426Z,529.00
2023-12-16T09:28:55.972Z,529.00
2023-12-16T09:29:55.815Z,526.00
2023-12-16T09:30:55.955Z,526.00
2023-12-16T09:31:55.923Z,528.00
2023-12-16T09:32:56.021Z,529.00
2023-12-16T09:33:56.179Z,531.00
2023-12-16T09:34:55.929Z,531.00
2023-12-16T09:35:55.968Z,530.00
2023-12-16T09:36:56.026Z,526.00
2023-12-16T09:37:56.351Z,525.00
2023-12-16T09:38:56.104Z,526.00
2023-12-16T09:39:56.081Z,526.00
2023-12-16T09:40:56.135Z,526.00
2023-12-16T09:41:56.148Z,524.00
2023-12-16T09:42:56.189Z,526.00
2023-12-16T09:43:56.191Z,524.00
2023-12-16T09:44:56.190Z,522.00
2023-12-16T09:45:56.279Z,523.00
2023-12-16T09:46:56.284Z,523.00
2023-12-16T09:47:56.340Z,522.00
2023-12-16T09:48:56.428Z,522.00
2023-12-16T09:49:56.361Z,522.00
2023-12-16T09:50:56.487Z,521.00
2023-12-16T09:51:56.442Z,523.00
2023-12-16T09:52:56.498Z,527.00
2023-12-16T09:53:56.465Z,525.00
2023-12-16T09:54:56.597Z,522.00
2023-12-16T09:55:56.545Z,522.00
2023-12-16T09:56:56.600Z,520.00
2023-12-16T09:57:56.844Z,518.00
2023-12-16T09:58:56.676Z,520.00
2023-12-16T09:59:56.714Z,519.00
2023-12-16T10:00:57.362Z,518.00
2023-12-16T10:01:56.802Z,519.00
2023-12-16T10:02:56.869Z,519.00
2023-12-16T10:03:57.850Z,518.00
2023-12-16T10:04:56.930Z,519.00
2023-12-16T10:05:57.016Z,520.00
2023-12-16T10:06:57.030Z,519.00
2023-12-16T10:07:57.345Z,518.00
2023-12-16T10:08:57.104Z,517.00
2023-12-16T10:09:57.130Z,519.00
2023-12-16T10:11:01.371Z,520.00
2023-12-16T10:11:58.176Z,520.00
2023-12-16T10:12:57.207Z,522.00
2023-12-16T10:13:57.210Z,523.00
2023-12-16T10:14:57.204Z,523.00
2023-12-16T10:15:57.148Z,524.00
2023-12-16T10:16:57.181Z,523.00
2023-12-16T10:17:57.351Z,522.00
2023-12-16T10:18:57.389Z,521.00
2023-12-16T10:19:57.224Z,523.00
2023-12-16T10:20:59.330Z,524.00
2023-12-16T10:21:58.207Z,525.00
2023-12-16T10:22:57.233Z,526.00
2023-12-16T10:23:57.183Z,525.00
2023-12-16T10:24:57.222Z,524.00
2023-12-16T10:25:57.189Z,524.00
2023-12-16T10:26:57.177Z,524.00
2023-12-16T10:27:57.338Z,523.00
2023-12-16T10:28:57.162Z,522.00
2023-12-16T10:30:03.259Z,521.00
2023-12-16T10:30:58.476Z,520.00
2023-12-16T10:31:57.432Z,520.00
2023-12-16T10:32:57.598Z,520.00
2023-12-16T10:33:57.538Z,519.00
2023-12-16T10:34:57.628Z,518.00
2023-12-16T10:35:57.741Z,517.00
2023-12-16T10:36:57.694Z,517.00
2023-12-16T10:37:57.777Z,515.00
2023-12-16T10:38:57.823Z,515.00
2023-12-16T10:39:57.960Z,514.00
2023-12-16T10:40:57.932Z,517.00
2023-12-16T10:41:58.009Z,519.00
2023-12-16T10:42:58.380Z,518.00
2023-12-16T10:43:58.192Z,519.00
2023-12-16T10:44:58.242Z,520.00
2023-12-16T10:45:58.273Z,518.00
2023-12-16T10:46:58.327Z,514.00
2023-12-16T10:47:58.433Z,513.00
2023-12-16T10:48:58.545Z,512.00
2023-12-16T10:49:58.521Z,512.00
2023-12-16T10:50:58.586Z,511.00
2023-12-16T10:51:58.660Z,510.00
2023-12-16T10:52:58.831Z,513.00
2023-12-16T10:53:58.747Z,513.00
2023-12-16T10:54:58.972Z,511.00
2023-12-16T10:55:58.974Z,511.00
2023-12-16T10:56:58.981Z,512.00
2023-12-16T10:57:59.038Z,510.00
2023-12-16T10:58:59.104Z,511.00
2023-12-16T10:59:59.189Z,513.00
2023-12-16T11:00:59.348Z,513.00
2023-12-16T11:01:59.413Z,513.00
2023-12-16T11:02:59.426Z,510.00
2023-12-16T11:03:59.389Z,508.00
2023-12-16T11:04:59.464Z,508.00
2023-12-16T11:05:59.512Z,506.00
2023-12-16T11:06:59.577Z,510.00
2023-12-16T11:07:59.610Z,512.00
2023-12-16T11:08:59.633Z,508.00
2023-12-16T11:09:59.664Z,506.00
2023-12-16T11:10:59.703Z,506.00
2023-12-16T11:11:59.697Z,506.00
2023-12-16T11:12:59.810Z,506.00
2023-12-16T11:13:59.812Z,510.00
2023-12-16T11:14:59.841Z,511.00
2023-12-16T11:15:59.924Z,511.00
2023-12-16T11:16:59.967Z,513.00
2023-12-16T11:18:00.096Z,514.00
2023-12-16T11:19:00.200Z,513.00
2023-12-16T11:20:00.241Z,512.00
2023-12-16T11:21:00.169Z,512.00
2023-12-16T11:22:00.238Z,513.00
2023-12-16T11:23:00.229Z,511.00
2023-12-16T11:24:00.303Z,512.00
2023-12-16T11:25:00.505Z,510.00
2023-12-16T11:26:00.513Z,508.00
2023-12-16T11:27:00.383Z,508.00
2023-12-16T11:28:00.883Z,508.00
2023-12-16T11:29:00.436Z,509.00
2023-12-16T11:30:00.490Z,509.00
2023-12-16T11:31:00.732Z,509.00
2023-12-16T11:32:00.601Z,509.00
2023-12-16T11:33:00.678Z,509.00
2023-12-16T11:34:00.775Z,508.00
2023-12-16T11:35:00.800Z,510.00
2023-12-16T11:36:00.687Z,508.00
2023-12-16T11:37:00.708Z,510.00
2023-12-16T11:38:00.725Z,510.00
2023-12-16T11:39:00.730Z,512.00
2023-12-16T11:40:00.717Z,513.00
2023-12-16T11:41:00.714Z,511.00
2023-12-16T11:42:00.744Z,510.00
2023-12-16T11:43:00.878Z,509.00
2023-12-16T11:44:00.734Z,510.00
2023-12-16T11:45:00.737Z,509.00
2023-12-16T11:46:00.790Z,509.00
2023-12-16T11:47:00.780Z,508.00
2023-12-16T11:48:00.827Z,508.00
2023-12-16T11:49:00.880Z,510.00
2023-12-16T11:50:01.027Z,508.00
2023-12-16T11:51:00.839Z,507.00
2023-12-16T11:52:00.925Z,507.00
2023-12-16T11:53:00.979Z,507.00
2023-12-16T11:54:00.903Z,506.00
2023-12-16T11:55:00.959Z,506.00
2023-12-16T11:56:00.885Z,507.00
2023-12-16T11:57:00.848Z,508.00
2023-12-16T11:58:00.904Z,508.00
2023-12-16T11:59:00.915Z,506.00
2023-12-16T12:00:00.870Z,506.00
2023-12-16T12:01:00.978Z,506.00
2023-12-16T12:02:00.922Z,507.00
2023-12-16T12:03:02.041Z,507.00
2023-12-16T12:04:01.182Z,510.00
2023-12-16T12:05:01.401Z,511.00
2023-12-16T12:06:01.166Z,513.00
2023-12-16T12:07:01.222Z,513.00
2023-12-16T12:08:01.196Z,511.00
2023-12-16T12:09:01.133Z,511.00
2023-12-16T12:10:01.202Z,508.00
2023-12-16T12:11:01.192Z,506.00
2023-12-16T12:12:01.192Z,506.00
2023-12-16T12:13:01.228Z,507.00
2023-12-16T12:14:01.209Z,507.00
2023-12-16T12:15:01.254Z,506.00
2023-12-16T12:16:01.282Z,506.00
2023-12-16T12:17:01.247Z,507.00
2023-12-16T12:18:01.568Z,508.00
2023-12-16T12:19:01.500Z,508.00
2023-12-16T12:20:01.271Z,508.00
2023-12-16T12:21:01.892Z,506.00
2023-12-16T12:22:01.391Z,505.00
2023-12-16T12:23:03.649Z,505.00
2023-12-16T12:24:01.367Z,506.00
2023-12-16T12:25:01.333Z,506.00
2023-12-16T12:26:01.347Z,506.00
2023-12-16T12:27:01.300Z,506.00
2023-12-16T12:28:01.396Z,508.00
2023-12-16T12:29:02.806Z,508.00
2023-12-16T12:30:01.397Z,509.00